createdAt,value
2022-09-04T00:04:50.743Z,12.93
2022-09-04T00:13:34.705Z,12.93
2022-09-04T00:21:56.780Z,12.92
2022-09-04T00:26:13.263Z,12.95
2022-09-04T00:31:25.990Z,12.9
2022-09-04T00:36:49.573Z,12.73
2022-09-04T00:42:04.608Z,12.6
2022-09-04T00:50:37.677Z,12.55
2022-09-04T00:59:10.721Z,12.52
2022-09-04T01:03:21.771Z,12.59
2022-09-04T01:08:40.618Z,12.52
2022-09-04T01:14:00.200Z,12.52
2022-09-04T01:19:19.621Z,12.56
2022-09-04T01:27:52.687Z,12.53
2022-09-04T01:32:09.240Z,12.46
2022-09-04T01:36:25.741Z,12.58
2022-09-04T01:45:56.202Z,12.58
2022-09-04T01:51:15.581Z,12.52
2022-09-04T01:56:34.357Z,12.55
2022-09-04T02:01:53.169Z,12.63
2022-09-04T02:07:12.294Z,12.55
2022-09-04T02:12:31.404Z,12.41
2022-09-04T02:17:50.323Z,12.29
2022-09-04T02:26:23.422Z,12.1
2022-09-04T02:28:28.609Z,11.95
2022-09-04T02:33:47.607Z,11.86
2022-09-04T02:39:06.961Z,11.87
2022-09-04T02:44:26.194Z,11.91
2022-09-04T02:49:45.601Z,11.9
2022-09-04T02:55:05.395Z,11.83
2022-09-04T03:00:24.449Z,11.77
2022-09-04T03:05:43.606Z,11.81
2022-09-04T03:11:02.475Z,11.95
2022-09-04T03:19:35.513Z,11.8
2022-09-04T03:28:08.570Z,11.74
2022-09-04T03:32:18.029Z,11.66
2022-09-04T03:40:51.085Z,11.62
2022-09-04T03:45:07.597Z,11.65
2022-09-04T03:53:36.316Z,11.7
2022-09-04T03:58:05.057Z,11.81
2022-09-04T04:02:25.776Z,11.71
2022-09-04T04:10:58.728Z,11.56
2022-09-04T04:15:43.598Z,11.6
2022-09-04T04:20:52.962Z,11.47
2022-09-04T04:26:11.788Z,11.36
2022-09-04T04:31:30.742Z,11.25
2022-09-04T04:40:03.829Z,11.18
2022-09-04T04:42:08.651Z,11.16
2022-09-04T04:52:47.602Z,11.01
2022-09-04T05:01:20.651Z,11.02
2022-09-04T05:05:37.184Z,11.08
2022-09-04T05:09:53.721Z,11.14
2022-09-04T05:19:23.980Z,11.16
2022-09-04T05:27:57.043Z,11.26
2022-09-04T05:32:13.555Z,11.29
2022-09-04T05:35:21.780Z,11.47
2022-09-04T05:45:59.706Z,12.11
2022-09-04T05:51:19.427Z,12
2022-09-04T05:56:38.423Z,12.01
2022-09-04T06:05:11.484Z,12.1
2022-09-04T06:17:55.930Z,12.65
2022-09-04T06:23:15.264Z,12.85
2022-09-04T06:31:48.324Z,13.28
2022-09-04T06:40:32.388Z,13.79
2022-09-04T06:44:48.917Z,14.1
2022-09-04T06:50:00.993Z,14.39
2022-09-04T06:55:09.238Z,14.85
2022-09-04T07:03:42.320Z,15.36
2022-09-04T07:07:58.804Z,15.96
2022-09-04T07:12:15.399Z,16.44
2022-09-04T07:21:45.732Z,17.27
2022-09-04T07:27:04.536Z,17.89
2022-09-04T07:32:23.620Z,18.54
2022-09-04T07:37:42.896Z,19.17
2022-09-04T07:43:02.110Z,19.76
2022-09-04T07:51:35.165Z,20.34
2022-09-04T07:53:41.042Z,20.85
2022-09-04T08:04:19.254Z,21.83
2022-09-04T08:12:52.314Z,22.38
2022-09-04T08:14:56.896Z,22.67
2022-09-04T08:20:15.586Z,22.86
2022-09-04T08:25:34.763Z,23.14
2022-09-04T08:30:53.513Z,23.24
2022-09-04T08:36:12.511Z,23.78
2022-09-04T08:41:31.914Z,23.4
2022-09-04T08:46:51.053Z,23.5
2022-09-04T08:52:09.786Z,23.35
2022-09-04T08:57:28.812Z,23.75
2022-09-04T09:02:47.732Z,24.47
2022-09-04T09:08:06.897Z,24.53
2022-09-04T09:13:26.276Z,25.02
2022-09-04T09:21:59.330Z,25.56
2022-09-04T09:30:32.421Z,26.27
2022-09-04T09:34:54.436Z,26.32
2022-09-04T09:40:01.352Z,24.6
2022-09-04T09:45:31.382Z,23.34
2022-09-04T09:53:53.441Z,22.48
2022-09-04T09:55:58.470Z,22.16
2022-09-04T10:01:18.134Z,23.13
2022-09-04T10:06:36.896Z,24.57
2022-09-04T10:15:09.910Z,24.46
2022-09-04T10:17:15.169Z,25.18
2022-09-04T10:27:53.087Z,25.05
2022-09-04T10:33:12.004Z,24.12
2022-09-04T10:38:31.296Z,23.88
2022-09-04T10:43:50.408Z,24.23
2022-09-04T10:49:09.218Z,25.28
2022-09-04T10:54:27.928Z,26.24
2022-09-04T10:59:47.562Z,26.44
2022-09-04T11:05:06.965Z,26.65
2022-09-04T11:10:26.342Z,26.07
2022-09-04T11:15:45.649Z,25.63
2022-09-04T11:21:04.900Z,25.16
2022-09-04T11:26:23.809Z,24.77
2022-09-04T11:31:43.186Z,24.88
2022-09-04T11:37:01.886Z,25.63
2022-09-04T11:42:21.517Z,25.93
2022-09-04T11:47:40.533Z,25.41
2022-09-04T11:56:13.590Z,24.9
2022-09-04T11:58:19.553Z,24.5
2022-09-04T12:03:38.988Z,24.46
2022-09-04T12:08:57.802Z,24.47
2022-09-04T12:14:16.670Z,24.46
2022-09-04T12:19:35.688Z,24.64
2022-09-04T12:24:54.904Z,24.9
2022-09-04T12:30:14.342Z,25.69
2022-09-04T12:35:33.432Z,26.73
2022-09-04T12:40:52.879Z,26.25
2022-09-04T12:46:12.513Z,25.9
2022-09-04T12:51:31.242Z,25.87
2022-09-04T12:56:50.388Z,25.94
2022-09-04T13:02:09.280Z,25.93
2022-09-04T13:07:27.774Z,25.82
2022-09-04T13:12:46.806Z,26.01
2022-09-04T13:18:06.004Z,26.17
2022-09-04T13:23:25.635Z,26.13
2022-09-04T13:28:44.767Z,25.61
2022-09-04T13:37:17.802Z,25.07
2022-09-04T13:39:23.486Z,24.83
2022-09-04T13:44:42.445Z,24.75
2022-09-04T13:50:01.977Z,24.77
2022-09-04T13:55:20.843Z,24.8
2022-09-04T14:00:39.745Z,24.78
2022-09-04T14:05:58.606Z,24.67
2022-09-04T14:11:17.492Z,24.44
2022-09-04T14:16:36.532Z,24.33
2022-09-04T14:21:55.389Z,24.33
2022-09-04T14:27:14.115Z,24.41
2022-09-04T14:35:47.170Z,24.54
2022-09-04T14:40:03.772Z,25.01
2022-09-04T14:43:12.127Z,26.2
2022-09-04T14:48:43.810Z,27.06
2022-09-04T14:57:04.826Z,27.8
2022-09-04T15:05:37.875Z,27.68
2022-09-04T15:10:06.437Z,26.86
2022-09-04T15:15:07.352Z,26.1
2022-09-04T15:20:26.628Z,25.94
2022-09-04T15:25:58.072Z,26.68
2022-09-04T15:31:05.893Z,27.03
2022-09-04T15:36:24.769Z,27.09
2022-09-04T15:41:44.282Z,26.95
2022-09-04T15:47:03.586Z,26.91
2022-09-04T15:52:22.479Z,27.02
2022-09-04T15:57:41.425Z,27.02
2022-09-04T16:03:00.659Z,27.2
2022-09-04T16:11:33.703Z,27.03
2022-09-04T16:19:09.489Z,26.67
2022-09-04T16:24:17.676Z,26.76
2022-09-04T16:29:36.640Z,26.72
2022-09-04T16:34:55.802Z,26.62
2022-09-04T16:40:14.907Z,26.53
2022-09-04T16:45:34.133Z,26.37
2022-09-04T16:50:53.098Z,26.24
2022-09-04T16:56:12.208Z,26.07
2022-09-04T17:01:31.567Z,25.89
2022-09-04T17:06:50.295Z,25.77
2022-09-04T17:12:09.876Z,25.73
2022-09-04T17:17:30.390Z,25.28
2022-09-04T17:25:19.636Z,24.99
2022-09-04T17:29:05.415Z,24.63
2022-09-04T17:35:01.283Z,24.22
2022-09-04T17:40:44.806Z,23.72
2022-09-04T17:44:04.456Z,23.25
2022-09-04T17:49:26.660Z,22.82
2022-09-04T17:57:56.579Z,22.52
2022-09-04T18:05:21.803Z,21.91
2022-09-04T18:10:41.013Z,21.67
2022-09-04T18:15:59.849Z,21.46
2022-09-04T18:21:19.529Z,21.18
2022-09-04T18:26:40.939Z,21.02
2022-09-04T18:37:14.123Z,20.89
2022-09-04T18:50:27.411Z,20.01
2022-09-04T18:53:15.921Z,19.77
2022-09-04T18:58:35.543Z,19.58
2022-09-04T19:03:54.611Z,19.51
2022-09-04T19:09:13.816Z,19.41
2022-09-04T19:14:32.836Z,19.11
2022-09-04T19:19:51.697Z,18.86
2022-09-04T19:25:10.736Z,18.64
2022-09-04T19:30:30.309Z,18.52
2022-09-04T19:35:49.926Z,18.29
2022-09-04T19:44:28.673Z,18.16
2022-09-04T19:46:29.921Z,18.1
2022-09-04T19:53:21.055Z,17.99
2022-09-04T19:57:31.827Z,17.82
2022-09-04T20:02:25.990Z,17.74
2022-09-04T20:07:45.594Z,17.7
2022-09-04T20:13:04.755Z,17.57
2022-09-04T20:18:38.861Z,17.37
2022-09-04T20:23:42.682Z,17.06
2022-09-04T20:29:13.174Z,16.87
2022-09-04T20:34:21.027Z,16.67
2022-09-04T20:39:40.036Z,16.45
2022-09-04T20:47:39.675Z,16.54
2022-09-04T20:52:47.112Z,16.67
2022-09-04T21:00:20.211Z,16.52
2022-09-04T21:03:16.198Z,16.24
2022-09-04T21:06:15.585Z,16.03
2022-09-04T21:14:48.665Z,15.79
2022-09-04T21:23:33.763Z,15.65
2022-09-04T21:27:38.224Z,15.6
2022-09-04T21:32:52.738Z,15.42
2022-09-04T21:41:25.849Z,15.34
2022-09-04T21:43:33.376Z,15.39
2022-09-04T21:48:49.826Z,15.34
2022-09-04T22:01:08.888Z,15.27
2022-09-04T22:05:56.281Z,15.12
2022-09-04T22:13:27.953Z,14.85
2022-09-04T22:15:28.718Z,14.67
2022-09-04T22:20:45.530Z,14.61
2022-09-04T22:29:19.889Z,14.49
2022-09-04T22:37:51.653Z,14.3
2022-09-04T22:46:28.916Z,14.32
2022-09-04T22:50:49.880Z,14.22
2022-09-04T22:52:40.031Z,14.19
2022-09-04T23:03:32.810Z,14.04
2022-09-04T23:08:44.836Z,14.15
2022-09-04T23:12:30.334Z,14.05
2022-09-04T23:14:47.872Z,14.09
2022-09-04T23:26:39.666Z,13.98
2022-09-04T23:27:38.461Z,13.86
2022-09-04T23:31:44.021Z,13.81
2022-09-04T23:35:54.764Z,13.82
2022-09-04T23:41:13.632Z,13.88
2022-09-04T23:46:32.500Z,13.86
2022-09-04T23:51:51.495Z,13.75
2022-09-04T23:57:11.265Z,13.77
